createdAt,value
2019-04-28T00:01:38.491Z,94.60
2019-04-28T00:04:09.111Z,94.70
2019-04-28T00:06:39.436Z,94.90
2019-04-28T00:09:11.591Z,94.90
2019-04-28T00:11:42.283Z,95.00
2019-04-28T00:14:13.048Z,95.10
2019-04-28T00:16:43.381Z,95.30
2019-04-28T00:19:13.801Z,95.30
2019-04-28T00:24:53.819Z,95.40
2019-04-28T00:27:24.156Z,95.50
2019-04-28T00:29:54.520Z,95.50
2019-04-28T00:32:24.843Z,95.50
2019-04-28T00:34:56.249Z,95.60
2019-04-28T00:37:28.221Z,96.10
2019-04-28T00:40:01.026Z,95.60
2019-04-28T00:42:31.614Z,95.60
2019-04-28T00:45:02.114Z,95.60
2019-04-28T00:47:33.502Z,95.70
2019-04-28T00:50:05.841Z,95.70
2019-04-28T00:52:36.167Z,95.80
2019-04-28T00:55:07.424Z,96.00
2019-04-28T00:57:37.827Z,96.10
2019-04-28T01:00:11.481Z,96.10
2019-04-28T01:02:42.144Z,96.10
2019-04-28T01:05:13.381Z,96.10
2019-04-28T01:07:43.728Z,96.10
2019-04-28T01:10:27.692Z,96.20
2019-04-28T01:12:58.020Z,96.20
2019-04-28T01:15:42.055Z,96.10
2019-04-28T01:18:20.326Z,96.10
2019-04-28T01:20:50.345Z,96.10
2019-04-28T01:23:20.935Z,96.10
2019-04-28T01:25:51.272Z,96.10
2019-04-28T01:28:21.936Z,96.00
2019-04-28T01:30:56.728Z,96.00
2019-04-28T01:33:31.738Z,96.00
2019-04-28T01:36:02.076Z,95.90
2019-04-28T01:38:32.398Z,96.00
2019-04-28T01:41:02.734Z,96.00
2019-04-28T01:43:33.061Z,95.90
2019-04-28T01:46:03.407Z,95.90
2019-04-28T01:48:33.728Z,95.80
2019-04-28T01:51:04.083Z,95.80
2019-04-28T01:53:34.593Z,95.50
2019-04-28T01:56:04.927Z,95.70
2019-04-28T01:58:54.594Z,95.70
2019-04-28T02:01:24.941Z,95.70
2019-04-28T02:03:55.264Z,95.70
2019-04-28T02:06:25.602Z,95.70
2019-04-28T02:08:57.007Z,95.70
2019-04-28T02:11:27.332Z,95.80
2019-04-28T02:13:59.579Z,95.80
2019-04-28T02:16:29.786Z,95.70
2019-04-28T02:19:00.116Z,95.80
2019-04-28T02:21:49.544Z,96.00
2019-04-28T02:24:30.866Z,96.10
2019-04-28T02:27:01.323Z,96.20
2019-04-28T02:29:31.648Z,96.10
2019-04-28T02:32:02.651Z,96.00
2019-04-28T02:34:33.073Z,96.10
2019-04-28T02:37:03.421Z,96.00
2019-04-28T02:39:33.746Z,95.90
2019-04-28T02:42:04.134Z,95.90
2019-04-28T02:44:35.293Z,95.90
2019-04-28T02:47:05.815Z,96.10
2019-04-28T02:49:43.741Z,96.10
2019-04-28T02:52:30.592Z,96.10
2019-04-28T02:55:03.338Z,96.20
2019-04-28T02:57:33.835Z,96.10
2019-04-28T03:00:10.097Z,96.10
2019-04-28T03:02:41.367Z,96.20
2019-04-28T03:05:11.930Z,96.20
2019-04-28T03:07:42.245Z,96.30
2019-04-28T03:10:12.873Z,96.30
2019-04-28T03:12:43.286Z,96.30
2019-04-28T03:15:15.290Z,96.30
2019-04-28T03:17:45.623Z,96.30
2019-04-28T03:20:16.099Z,96.30
2019-04-28T03:22:46.444Z,96.70
2019-04-28T03:25:21.118Z,96.30
2019-04-28T03:28:00.601Z,96.30
2019-04-28T03:30:43.448Z,96.30
2019-04-28T03:33:18.587Z,96.30
2019-04-28T03:35:44.432Z,96.20
2019-04-28T03:38:15.079Z,96.20
2019-04-28T03:40:45.409Z,96.20
2019-04-28T03:43:15.752Z,96.20
2019-04-28T03:45:56.906Z,96.20
2019-04-28T03:48:27.231Z,96.10
2019-04-28T03:50:57.562Z,96.10
2019-04-28T03:53:27.893Z,96.10
2019-04-28T03:56:01.207Z,96.00
2019-04-28T03:58:31.305Z,95.90
2019-04-28T04:01:03.235Z,95.90
2019-04-28T04:03:34.705Z,96.10
2019-04-28T04:06:05.247Z,96.10
2019-04-28T04:08:35.581Z,96.10
2019-04-28T04:11:11.044Z,96.20
2019-04-28T04:13:57.511Z,96.20
2019-04-28T04:16:41.448Z,96.20
2019-04-28T04:19:13.430Z,96.20
2019-04-28T04:21:43.759Z,96.20
2019-04-28T04:24:14.087Z,96.20
2019-04-28T04:26:44.416Z,96.30
2019-04-28T04:29:14.742Z,96.20
2019-04-28T04:31:45.079Z,96.30
2019-04-28T04:34:15.410Z,96.30
2019-04-28T04:36:45.742Z,96.40
2019-04-28T04:39:16.074Z,96.40
2019-04-28T04:41:46.406Z,96.40
2019-04-28T04:44:16.753Z,96.40
2019-04-28T04:46:47.068Z,96.40
2019-04-28T04:49:17.409Z,96.50
2019-04-28T04:51:50.669Z,96.40
2019-04-28T04:54:20.485Z,96.40
2019-04-28T04:56:50.980Z,96.40
2019-04-28T04:59:22.396Z,96.40
2019-04-28T05:01:57.041Z,96.40
2019-04-28T05:04:29.727Z,96.30
2019-04-28T05:07:00.061Z,96.30
2019-04-28T05:09:31.200Z,96.30
2019-04-28T05:12:01.618Z,96.30
2019-04-28T05:14:31.955Z,96.20
2019-04-28T05:17:02.281Z,96.10
2019-04-28T05:19:32.632Z,96.20
2019-04-28T05:22:03.362Z,96.10
2019-04-28T05:24:57.327Z,96.10
2019-04-28T05:27:27.661Z,96.10
2019-04-28T05:30:02.441Z,96.10
2019-04-28T05:32:42.086Z,96.00
2019-04-28T05:35:02.061Z,96.10
2019-04-28T05:37:32.384Z,96.00
2019-04-28T05:40:02.715Z,96.00
2019-04-28T05:42:33.057Z,95.90
2019-04-28T05:45:04.159Z,95.90
2019-04-28T05:47:34.489Z,95.80
2019-04-28T05:50:13.226Z,96.00
2019-04-28T05:55:54.047Z,95.90
2019-04-28T05:58:31.729Z,95.90
2019-04-28T06:01:06.151Z,95.60
2019-04-28T06:03:36.956Z,95.40
2019-04-28T06:06:07.288Z,95.40
2019-04-28T06:08:40.734Z,94.90
2019-04-28T06:11:31.297Z,95.00
2019-04-28T06:14:01.717Z,94.80
2019-04-28T06:16:32.070Z,94.40
2019-04-28T06:19:02.480Z,94.10
2019-04-28T06:21:33.910Z,93.90
2019-04-28T06:24:04.382Z,93.90
2019-04-28T06:26:34.722Z,93.30
2019-04-28T06:29:05.072Z,93.40
2019-04-28T06:31:35.412Z,93.20
2019-04-28T06:34:05.879Z,92.90
2019-04-28T06:36:36.150Z,93.20
2019-04-28T06:39:08.912Z,93.10
2019-04-28T06:41:39.248Z,93.00
2019-04-28T06:44:09.631Z,93.30
2019-04-28T06:46:39.971Z,93.00
2019-04-28T06:49:10.322Z,92.60
2019-04-28T06:51:41.549Z,91.90
2019-04-28T06:54:11.881Z,90.60
2019-04-28T06:56:42.213Z,88.90
2019-04-28T06:59:12.557Z,88.90
2019-04-28T07:01:42.879Z,86.60
2019-04-28T07:04:13.211Z,87.00
2019-04-28T07:06:43.548Z,87.30
2019-04-28T07:09:14.112Z,89.00
2019-04-28T07:11:44.475Z,85.80
2019-04-28T07:14:15.161Z,84.90
2019-04-28T07:16:45.519Z,84.30
2019-04-28T07:19:15.912Z,84.50
2019-04-28T07:21:50.575Z,83.40
2019-04-28T07:24:21.292Z,83.20
2019-04-28T07:26:51.630Z,84.10
2019-04-28T07:29:21.970Z,84.70
2019-04-28T07:31:52.357Z,83.70
2019-04-28T07:34:22.690Z,85.20
2019-04-28T07:36:53.024Z,84.10
2019-04-28T07:39:23.360Z,84.20
2019-04-28T07:41:53.690Z,84.30
2019-04-28T07:44:24.026Z,84.70
2019-04-28T07:46:54.361Z,85.70
2019-04-28T07:49:24.699Z,86.10
2019-04-28T07:52:02.629Z,85.70
2019-04-28T07:54:32.979Z,85.30
2019-04-28T07:57:03.313Z,85.90
2019-04-28T07:59:33.650Z,85.40
2019-04-28T08:02:04.053Z,83.90
2019-04-28T08:04:34.397Z,84.10
2019-04-28T08:07:04.808Z,83.40
2019-04-28T08:09:35.146Z,84.30
2019-04-28T08:12:05.859Z,82.30
2019-04-28T08:14:36.193Z,82.70
2019-04-28T08:17:06.607Z,83.00
2019-04-28T08:19:38.004Z,82.20
2019-04-28T08:22:08.424Z,81.20
2019-04-28T08:24:38.777Z,81.50
2019-04-28T08:27:09.137Z,81.30
2019-04-28T08:30:41.028Z,82.30
2019-04-28T08:33:19.057Z,81.40
2019-04-28T08:35:49.407Z,82.20
2019-04-28T08:38:19.747Z,81.80
2019-04-28T08:40:51.621Z,81.80
2019-04-28T08:43:21.962Z,80.90
2019-04-28T08:45:52.384Z,79.60
2019-04-28T08:48:22.792Z,78.10
2019-04-28T08:50:53.132Z,78.00
2019-04-28T08:53:23.462Z,78.90
2019-04-28T08:55:53.806Z,79.10
2019-04-28T08:58:24.159Z,77.80
2019-04-28T09:00:54.793Z,77.40
2019-04-28T09:03:25.122Z,77.20
2019-04-28T09:05:58.130Z,76.70
2019-04-28T09:08:29.541Z,78.00
2019-04-28T09:10:59.948Z,77.60
2019-04-28T09:13:30.279Z,77.60
2019-04-28T09:16:00.613Z,77.80
2019-04-28T09:18:30.958Z,78.70
2019-04-28T09:21:01.297Z,79.40
2019-04-28T09:23:32.708Z,79.70
2019-04-28T09:26:03.051Z,80.00
2019-04-28T09:28:33.413Z,80.00
2019-04-28T09:31:03.756Z,78.60
2019-04-28T09:33:34.087Z,78.40
2019-04-28T09:36:04.421Z,77.70
2019-04-28T09:38:34.912Z,77.00
2019-04-28T09:41:05.251Z,77.80
2019-04-28T09:43:53.453Z,78.60
2019-04-28T09:46:28.206Z,78.90
2019-04-28T09:48:58.537Z,79.00
2019-04-28T09:51:28.882Z,78.60
2019-04-28T09:53:59.221Z,78.40
2019-04-28T09:56:29.559Z,77.10
2019-04-28T09:58:59.885Z,76.90
2019-04-28T10:01:30.235Z,77.30
2019-04-28T10:04:01.208Z,77.00
2019-04-28T10:06:31.609Z,76.40
2019-04-28T10:09:01.946Z,74.10
2019-04-28T10:11:33.925Z,74.60
2019-04-28T10:14:04.265Z,73.90
2019-04-28T10:16:34.616Z,74.50
2019-04-28T10:19:04.944Z,74.10
2019-04-28T10:21:35.291Z,72.70
2019-04-28T10:24:05.698Z,75.50
2019-04-28T10:26:36.047Z,74.10
2019-04-28T10:29:06.382Z,72.50
2019-04-28T10:31:36.712Z,73.20
2019-04-28T10:34:07.121Z,73.90
2019-04-28T10:36:37.449Z,72.70
2019-04-28T10:39:27.540Z,73.70
2019-04-28T10:41:57.889Z,73.40
2019-04-28T10:44:29.696Z,73.40
2019-04-28T10:47:00.112Z,70.60
2019-04-28T10:49:30.783Z,70.10
2019-04-28T10:52:01.118Z,70.80
2019-04-28T10:54:31.529Z,71.60
2019-04-28T10:57:01.804Z,70.80
2019-04-28T10:59:32.149Z,69.70
2019-04-28T11:02:02.488Z,70.40
2019-04-28T11:04:40.697Z,71.50
2019-04-28T11:07:15.396Z,71.60
2019-04-28T11:09:50.357Z,70.60
2019-04-28T11:12:28.595Z,68.40
2019-04-28T11:14:58.934Z,70.00
2019-04-28T11:17:29.437Z,68.80
2019-04-28T11:19:59.789Z,67.60
2019-04-28T11:22:30.129Z,66.60
2019-04-28T11:25:00.534Z,66.70
2019-04-28T11:27:31.938Z,68.90
2019-04-28T11:30:02.353Z,65.60
2019-04-28T11:32:34.158Z,66.70
2019-04-28T11:35:22.283Z,68.00
2019-04-28T11:37:54.727Z,66.70
2019-04-28T11:40:25.155Z,66.90
2019-04-28T11:42:55.493Z,68.30
2019-04-28T11:45:26.914Z,70.80
2019-04-28T11:47:57.256Z,69.40
2019-04-28T11:50:27.596Z,68.20
2019-04-28T11:52:58.009Z,69.40
2019-04-28T11:55:28.340Z,67.00
2019-04-28T11:57:58.678Z,68.30
2019-04-28T12:00:30.654Z,66.70
2019-04-28T12:03:01.065Z,66.10
2019-04-28T12:05:38.352Z,65.40
2019-04-28T12:08:08.124Z,64.40
2019-04-28T12:10:46.089Z,65.20
2019-04-28T12:13:19.036Z,63.20
2019-04-28T12:15:53.973Z,63.00
2019-04-28T12:18:35.136Z,62.80
2019-04-28T12:21:05.743Z,64.90
2019-04-28T12:23:36.093Z,63.30
2019-04-28T12:26:06.451Z,65.10
2019-04-28T12:28:36.864Z,64.90
2019-04-28T12:31:07.204Z,60.30
2019-04-28T12:33:37.545Z,64.10
2019-04-28T12:36:09.118Z,63.70
2019-04-28T12:38:39.455Z,61.70
2019-04-28T12:41:09.788Z,64.00
2019-04-28T12:43:40.134Z,64.20
2019-04-28T12:46:10.494Z,61.80
2019-04-28T12:48:40.836Z,62.40
2019-04-28T12:51:11.548Z,63.80
2019-04-28T12:53:41.932Z,62.00
2019-04-28T12:56:12.485Z,62.60
2019-04-28T12:58:43.188Z,60.40
2019-04-28T13:01:24.242Z,62.20
2019-04-28T13:04:12.437Z,62.20
2019-04-28T13:06:44.421Z,61.20
2019-04-28T13:09:15.124Z,62.20
2019-04-28T13:11:45.463Z,63.00
2019-04-28T13:14:15.800Z,61.00
2019-04-28T13:16:46.311Z,62.00
2019-04-28T13:19:16.648Z,60.40
2019-04-28T13:21:46.982Z,62.70
2019-04-28T13:24:17.325Z,63.30
2019-04-28T13:26:47.665Z,63.90
2019-04-28T13:29:18.011Z,63.70
2019-04-28T13:31:48.349Z,64.30
2019-04-28T13:34:20.330Z,63.60
2019-04-28T13:36:52.329Z,63.00
2019-04-28T13:39:27.328Z,64.00
2019-04-28T13:45:28.111Z,63.60
2019-04-28T13:47:58.513Z,60.80
2019-04-28T13:50:34.749Z,62.20
2019-04-28T13:53:06.496Z,63.00
2019-04-28T13:55:47.790Z,62.50
2019-04-28T13:58:22.488Z,63.40
2019-04-28T14:01:10.607Z,64.80
2019-04-28T14:03:48.939Z,63.70
2019-04-28T14:06:28.577Z,62.60
2019-04-28T14:08:55.864Z,63.70
2019-04-28T14:11:26.197Z,64.10
2019-04-28T14:13:56.591Z,62.10
2019-04-28T14:16:26.970Z,62.40
2019-04-28T14:18:57.244Z,62.20
2019-04-28T14:21:27.589Z,60.50
2019-04-28T14:23:57.923Z,62.20
2019-04-28T14:26:28.279Z,61.70
2019-04-28T14:28:58.621Z,62.60
2019-04-28T14:31:28.951Z,61.90
2019-04-28T14:33:59.312Z,62.70
2019-04-28T14:36:41.518Z,62.40
2019-04-28T14:39:04.277Z,61.90
2019-04-28T14:41:35.269Z,61.70
2019-04-28T14:44:05.818Z,61.00
2019-04-28T14:46:36.220Z,60.80
2019-04-28T14:49:06.651Z,61.30
2019-04-28T14:51:36.983Z,62.60
2019-04-28T14:54:07.311Z,61.40
2019-04-28T14:56:37.675Z,59.80
2019-04-28T14:59:07.981Z,61.10
2019-04-28T15:01:40.077Z,62.50
2019-04-28T15:04:14.772Z,62.00
2019-04-28T15:07:06.103Z,63.70
2019-04-28T15:09:55.422Z,63.80
2019-04-28T15:12:25.797Z,65.70
2019-04-28T15:14:56.088Z,66.80
2019-04-28T15:17:26.449Z,67.40
2019-04-28T15:19:56.767Z,68.20
2019-04-28T15:22:27.101Z,69.10
2019-04-28T15:24:57.429Z,69.30
2019-04-28T15:27:27.781Z,68.70
2019-04-28T15:29:58.112Z,68.60
2019-04-28T15:32:28.472Z,69.10
2019-04-28T15:34:58.810Z,69.40
2019-04-28T15:37:31.665Z,70.00
2019-04-28T15:40:02.083Z,69.80
2019-04-28T15:42:33.473Z,69.70
2019-04-28T15:45:04.921Z,69.70
2019-04-28T15:47:35.271Z,69.60
2019-04-28T15:50:07.489Z,70.10
2019-04-28T15:52:37.902Z,70.10
2019-04-28T15:55:11.083Z,70.60
2019-04-28T15:57:41.427Z,70.80
2019-04-28T16:00:13.719Z,71.30
2019-04-28T16:02:44.054Z,70.40
2019-04-28T16:05:14.637Z,70.80
2019-04-28T16:07:44.967Z,72.10
2019-04-28T16:10:16.250Z,70.80
2019-04-28T16:12:46.604Z,71.30
2019-04-28T16:15:17.085Z,71.70
2019-04-28T16:17:47.429Z,72.40
2019-04-28T16:20:17.832Z,72.60
2019-04-28T16:22:48.166Z,71.90
2019-04-28T16:25:18.504Z,72.30
2019-04-28T16:27:48.830Z,72.50
2019-04-28T16:30:19.169Z,73.30
2019-04-28T16:32:49.501Z,72.90
2019-04-28T16:35:19.861Z,72.90
2019-04-28T16:37:50.201Z,73.80
2019-04-28T16:40:22.189Z,74.30
2019-04-28T16:43:08.246Z,73.30
2019-04-28T16:45:38.769Z,73.60
2019-04-28T16:48:09.120Z,74.00
2019-04-28T16:50:39.464Z,74.40
2019-04-28T16:53:09.803Z,75.00
2019-04-28T16:55:47.765Z,75.30
2019-04-28T16:58:19.749Z,74.70
2019-04-28T17:00:57.681Z,74.40
2019-04-28T17:03:29.662Z,74.40
2019-04-28T17:06:00.011Z,74.80
2019-04-28T17:08:30.341Z,74.20
2019-04-28T17:11:00.697Z,75.00
2019-04-28T17:13:31.107Z,75.50
2019-04-28T17:16:01.458Z,75.00
2019-04-28T17:18:31.788Z,75.60
2019-04-28T17:21:02.136Z,75.70
2019-04-28T17:23:32.741Z,75.50
2019-04-28T17:26:03.071Z,75.60
2019-04-28T17:28:34.387Z,75.70
2019-04-28T17:31:06.160Z,75.50
2019-04-28T17:33:36.494Z,75.40
2019-04-28T17:36:06.825Z,75.70
2019-04-28T17:38:37.161Z,75.70
2019-04-28T17:41:07.936Z,75.50
2019-04-28T17:43:38.276Z,76.20
2019-04-28T17:46:08.681Z,76.40
2019-04-28T17:48:43.584Z,76.60
2019-04-28T17:51:13.919Z,76.80
2019-04-28T17:53:44.253Z,76.80
2019-04-28T17:56:14.584Z,76.80
2019-04-28T17:58:44.941Z,76.80
2019-04-28T18:01:31.940Z,77.40
2019-04-28T18:04:20.198Z,77.60
2019-04-28T18:06:55.107Z,77.20
2019-04-28T18:09:25.831Z,77.30
2019-04-28T18:11:56.166Z,77.40
2019-04-28T18:14:26.524Z,78.40
2019-04-28T18:17:04.203Z,78.50
2019-04-28T18:19:35.525Z,78.80
2019-04-28T18:22:05.933Z,79.60
2019-04-28T18:24:36.369Z,80.40
2019-04-28T18:27:06.769Z,80.60
2019-04-28T18:29:37.119Z,80.60
2019-04-28T18:32:21.058Z,80.70
2019-04-28T18:34:55.975Z,81.00
2019-04-28T18:37:31.870Z,81.30
2019-04-28T18:40:03.847Z,81.90
2019-04-28T18:42:39.997Z,82.20
2019-04-28T18:45:11.174Z,82.80
2019-04-28T18:47:41.506Z,83.60
2019-04-28T18:50:12.286Z,84.00
2019-04-28T18:52:42.625Z,85.00
2019-04-28T18:55:13.174Z,85.50
2019-04-28T18:57:43.516Z,86.10
2019-04-28T19:00:14.199Z,86.20
2019-04-28T19:02:45.903Z,86.50
2019-04-28T19:05:16.550Z,86.80
2019-04-28T19:07:49.296Z,86.90
2019-04-28T19:10:33.564Z,87.50
2019-04-28T19:13:11.532Z,88.50
2019-04-28T19:15:43.514Z,89.00
2019-04-28T19:18:18.179Z,89.50
2019-04-28T19:20:48.524Z,89.90
2019-04-28T19:23:18.854Z,90.20
2019-04-28T19:25:49.198Z,90.80
2019-04-28T19:28:19.515Z,90.80
2019-04-28T19:30:49.861Z,91.40
2019-04-28T19:33:20.195Z,91.60
2019-04-28T19:35:50.870Z,91.30
2019-04-28T19:38:21.215Z,91.40
2019-04-28T19:40:51.574Z,91.40
2019-04-28T19:43:22.974Z,91.40
2019-04-28T19:45:54.961Z,91.90
2019-04-28T19:48:25.291Z,91.60
2019-04-28T19:50:55.637Z,92.00
2019-04-28T19:53:25.970Z,91.60
2019-04-28T19:56:00.344Z,91.60
2019-04-28T19:58:32.317Z,91.70
2019-04-28T20:01:04.296Z,91.70
2019-04-28T20:03:34.623Z,91.70
2019-04-28T20:06:04.988Z,91.70
2019-04-28T20:08:35.319Z,91.80
2019-04-28T20:11:05.661Z,91.90
2019-04-28T20:13:36.003Z,92.00
2019-04-28T20:16:06.345Z,92.00
2019-04-28T20:18:36.675Z,92.10
2019-04-28T20:21:07.025Z,92.30
2019-04-28T20:23:37.357Z,92.50
2019-04-28T20:26:07.867Z,92.60
2019-04-28T20:28:38.188Z,92.60
2019-04-28T20:31:08.539Z,92.80
2019-04-28T20:33:38.873Z,92.80
2019-04-28T20:36:10.861Z,93.00
2019-04-28T20:38:41.196Z,93.10
2019-04-28T20:41:13.248Z,93.10
2019-04-28T20:43:43.576Z,93.20
2019-04-28T20:46:13.928Z,93.20
2019-04-28T20:48:44.262Z,93.20
2019-04-28T20:51:14.616Z,93.20
2019-04-28T20:53:44.950Z,93.20
2019-04-28T20:56:15.285Z,93.20
2019-04-28T20:58:45.614Z,93.20
2019-04-28T21:01:29.445Z,93.10
2019-04-28T21:03:59.770Z,93.20
2019-04-28T21:06:30.118Z,93.10
2019-04-28T21:09:00.447Z,93.10
2019-04-28T21:11:32.412Z,93.50
2019-04-28T21:14:08.804Z,93.10
2019-04-28T21:16:39.140Z,93.20
2019-04-28T21:19:09.472Z,93.30
2019-04-28T21:21:39.822Z,93.30
2019-04-28T21:24:10.153Z,93.30
2019-04-28T21:26:40.492Z,93.40
2019-04-28T21:29:10.820Z,93.40
2019-04-28T21:31:41.166Z,93.60
2019-04-28T21:34:11.490Z,93.60
2019-04-28T21:36:54.293Z,93.70
2019-04-28T21:39:24.622Z,93.80
2019-04-28T21:41:56.246Z,93.90
2019-04-28T21:44:46.892Z,93.90
2019-04-28T21:47:21.818Z,93.90
2019-04-28T21:49:52.147Z,94.00
2019-04-28T21:52:22.490Z,94.00
2019-04-28T21:54:52.819Z,94.10
2019-04-28T21:57:23.177Z,94.10
2019-04-28T21:59:53.509Z,94.10
2019-04-28T22:02:23.925Z,94.20
2019-04-28T22:04:54.255Z,94.10
2019-04-28T22:07:24.625Z,94.10
2019-04-28T22:09:54.941Z,94.10
2019-04-28T22:12:25.286Z,94.10
2019-04-28T22:14:56.586Z,94.10
2019-04-28T22:17:27.169Z,94.10
2019-04-28T22:19:57.567Z,94.20
2019-04-28T22:22:27.853Z,94.20
2019-04-28T22:24:59.828Z,94.30
2019-04-28T22:27:31.817Z,94.30
2019-04-28T22:30:02.149Z,94.00
2019-04-28T22:32:32.865Z,94.40
2019-04-28T22:35:03.265Z,94.40
2019-04-28T22:37:33.606Z,94.40
2019-04-28T22:40:06.378Z,94.50
2019-04-28T22:42:36.723Z,94.50
2019-04-28T22:45:09.826Z,94.40
2019-04-28T22:47:40.179Z,94.60
2019-04-28T22:50:37.055Z,94.60
2019-04-28T22:53:07.408Z,94.70
2019-04-28T22:55:39.376Z,95.10
2019-04-28T22:58:11.357Z,94.70
2019-04-28T23:00:43.336Z,94.80
2019-04-28T23:03:30.547Z,94.80
2019-04-28T23:06:00.876Z,94.90
2019-04-28T23:08:43.499Z,94.90
2019-04-28T23:11:13.809Z,95.20
2019-04-28T23:13:44.428Z,95.10
2019-04-28T23:16:14.758Z,95.10
2019-04-28T23:18:45.112Z,95.10
2019-04-28T23:21:17.095Z,95.10
2019-04-28T23:23:47.441Z,95.20
2019-04-28T23:26:17.772Z,95.30
2019-04-28T23:28:48.121Z,95.50
2019-04-28T23:31:18.448Z,95.50
2019-04-28T23:33:48.792Z,95.50
2019-04-28T23:36:19.125Z,95.60
2019-04-28T23:38:49.465Z,95.70
2019-04-28T23:41:30.465Z,95.70
2019-04-28T23:44:00.799Z,95.70
2019-04-28T23:46:57.796Z,95.80
2019-04-28T23:49:30.147Z,95.80
2019-04-28T23:52:21.462Z,95.90
2019-04-28T23:54:53.434Z,96.10
2019-04-28T23:57:24.738Z,95.80
2019-04-28T23:59:55.084Z,95.80
